Time;durP1;ratioP1;P1;durP2;ratioP2;P2;SDS_P1;SDS_P2;PMS_P1;PMS_P2;Temp;Humidity;BMP_temperature;BMP_pressure;BME280_temperature;BME280_humidity;BME280_pressure;Samples;Min_cycle;Max_cycle;Signal;HPM_P1;HPM_P2
2021/05/09 00:00:48;;;;;;;;;;;;;;;19.80;37.84;100815.31;2092957;28;4079;-35
2021/05/09 00:01:49;;;;;;;;;;;;;;;19.80;37.90;100809.66;2092955;28;4984;-34
2021/05/09 00:02:50;;;;;;;;;;;;;;;19.78;37.75;100806.31;2093239;28;3960;-36
2021/05/09 00:03:51;;;;;;;;;;;;;;;19.78;37.60;100808.34;2091300;28;4040;-37
2021/05/09 00:04:52;;;;;;;;;;;;;;;19.76;37.42;100807.84;2092389;28;4056;-36
2021/05/09 00:05:53;;;;;;;;;;;;;;;19.73;37.33;100803.69;2092792;28;3831;-35
2021/05/09 00:06:55;;;;;;;;;;;;;;;19.73;37.33;100811.38;2093418;28;3970;-37
2021/05/09 00:07:56;;;;;;;;;;;;;;;19.72;37.37;100804.03;2092925;28;4035;-37
2021/05/09 00:08:57;;;;;;;;;;;;;;;19.71;37.33;100803.22;2092824;28;3973;-39
2021/05/09 00:09:58;;;;;;;;;;;;;;;19.70;37.19;100806.38;2092223;28;4025;-35
2021/05/09 00:11:00;;;;;;;;;;;;;;;19.69;37.04;100813.25;2093067;28;4189;-37
2021/05/09 00:12:01;;;;;;;;;;;;;;;19.68;37.05;100805.88;2092200;28;4120;-39
2021/05/09 00:13:02;;;;;;;;;;;;;;;19.66;37.02;100803.41;2092646;28;3935;-36
2021/05/09 00:14:03;;;;;;;;;;;;;;;19.66;37.20;100802.59;2091851;28;4749;-36
2021/05/09 00:15:03;;;;;;;;;;;;;;;19.64;37.13;100797.22;2089397;28;3979;-34
2021/05/09 00:16:04;;;;;;;;;;;;;;;19.63;36.90;100809.75;2092977;28;4050;-36
2021/05/09 00:17:05;;;;;;;;;;;;;;;19.63;36.97;100806.06;2093030;28;4058;-36
2021/05/09 00:18:06;;;;;;;;;;;;;;;19.63;37.06;100803.22;2098339;28;4188;-39
2021/05/09 00:19:07;;;;;;;;;;;;;;;19.61;36.94;100800.75;2100477;28;4041;-37
2021/05/09 00:20:08;;;;;;;;;;;;;;;19.62;37.03;100807.25;2099761;28;4992;-37
2021/05/09 00:21:09;;;;;;;;;;;;;;;19.59;37.00;100803.91;2100941;28;4069;-37
2021/05/09 00:22:09;;;;;;;;;;;;;;;19.57;37.02;100796.91;2100396;28;4104;-35
2021/05/09 00:23:10;;;;;;;;;;;;;;;19.57;36.95;100803.44;2100244;28;4020;-34
2021/05/09 00:24:11;;;;;;;;;;;;;;;19.57;37.07;100800.59;2100690;28;4096;-33
2021/05/09 00:25:12;;;;;;;;;;;;;;;19.56;37.07;100798.09;2099719;28;4133;-36
2021/05/09 00:26:12;;;;;;;;;;;;;;;19.55;36.96;100799.28;2100822;28;3919;-36
2021/05/09 00:27:13;;;;;;;;;;;;;;;19.53;36.92;100799.63;2100151;28;4124;-36
2021/05/09 00:28:14;;;;;;;;;;;;;;;19.52;37.08;100795.13;2101041;28;3895;-39
2021/05/09 00:29:14;;;;;;;;;;;;;;;19.51;36.79;100793.44;2099936;28;4044;-34
2021/05/09 00:30:16;;;;;;;;;;;;;;;19.50;36.99;100791.78;2101458;28;4204;-33
2021/05/09 00:31:17;;;;;;;;;;;;;;;19.51;36.85;100799.13;2099611;28;4045;-34
2021/05/09 00:32:17;;;;;;;;;;;;;;;19.51;36.81;100801.13;2102493;28;4224;-35
2021/05/09 00:33:18;;;;;;;;;;;;;;;19.50;36.89;100796.66;2101614;28;3878;-36
2021/05/09 00:34:19;;;;;;;;;;;;;;;19.49;36.81;100795.81;2102555;28;4045;-37
2021/05/09 00:35:20;;;;;;;;;;;;;;;19.48;36.78;100791.31;2099628;28;4010;-39
2021/05/09 00:36:20;;;;;;;;;;;;;;;19.48;36.70;100791.31;2101853;28;4225;-40
2021/05/09 00:37:21;;;;;;;;;;;;;;;19.48;36.69;100787.63;2102491;28;4005;-36
2021/05/09 00:38:22;;;;;;;;;;;;;;;19.47;36.64;100781.13;2102043;28;3855;-36
2021/05/09 00:39:23;;;;;;;;;;;;;;;19.45;36.72;100776.97;2102380;28;3982;-33
2021/05/09 00:40:23;;;;;;;;;;;;;;;19.44;36.75;100773.31;2101479;28;4109;-38
2021/05/09 00:41:24;;;;;;;;;;;;;;;19.44;36.64;100775.34;2102749;28;4184;-36
2021/05/09 00:42:25;;;;;;;;;;;;;;;19.42;36.69;100778.50;2102516;28;3858;-37
2021/05/09 00:43:26;;;;;;;;;;;;;;;19.42;36.69;100775.66;2101688;28;4276;-38
2021/05/09 00:44:27;;;;;;;;;;;;;;;19.42;36.75;100764.31;2102002;28;3990;-38
2021/05/09 00:45:27;;;;;;;;;;;;;;;19.43;36.60;100762.28;2101553;28;4173;-38
2021/05/09 00:46:28;;;;;;;;;;;;;;;19.41;36.59;100759.81;2102756;28;4056;-34
2021/05/09 00:47:29;;;;;;;;;;;;;;;19.41;36.56;100767.47;2102650;28;4358;-35
2021/05/09 00:48:30;;;;;;;;;;;;;;;19.41;36.66;100761.81;2102817;28;4100;-38
2021/05/09 00:49:30;;;;;;;;;;;;;;;19.39;36.47;100782.03;2102511;28;4093;-40
2021/05/09 00:50:31;;;;;;;;;;;;;;;19.39;36.53;100772.69;2102021;28;4333;-38
2021/05/09 00:51:32;;;;;;;;;;;;;;;19.39;36.41;100772.69;2102188;28;4198;-38
2021/05/09 00:52:33;;;;;;;;;;;;;;;19.38;36.35;100782.34;2100857;28;4062;-35
2021/05/09 00:53:34;;;;;;;;;;;;;;;19.38;36.43;100777.53;2102388;28;4003;-37
2021/05/09 00:54:34;;;;;;;;;;;;;;;19.37;36.56;100775.84;2102605;28;3853;-40
2021/05/09 00:55:35;;;;;;;;;;;;;;;19.37;36.36;100781.53;2101782;28;4018;-39
2021/05/09 00:56:36;;;;;;;;;;;;;;;19.35;36.19;100776.22;2099152;28;4103;-36
2021/05/09 00:57:36;;;;;;;;;;;;;;;19.33;36.43;100772.88;2102726;28;4033;-37
2021/05/09 00:58:38;;;;;;;;;;;;;;;19.34;36.30;100773.72;2102430;28;4104;-37
2021/05/09 00:59:38;;;;;;;;;;;;;;;19.32;36.52;100764.69;2101939;28;4035;-37
2021/05/09 01:00:39;;;;;;;;;;;;;;;19.31;36.53;100761.03;2099360;28;3880;-35
2021/05/09 01:01:41;;;;;;;;;;;;;;;19.32;36.39;100767.53;2102213;28;4087;-34
2021/05/09 01:02:42;;;;;;;;;;;;;;;19.30;36.47;100765.06;2101894;28;4012;-36
2021/05/09 01:03:43;;;;;;;;;;;;;;;19.29;36.57;100766.22;2101898;28;3834;-38
2021/05/09 01:04:44;;;;;;;;;;;;;;;19.29;36.56;100759.72;2101753;28;4081;-35
2021/05/09 01:05:44;;;;;;;;;;;;;;;19.28;36.43;100767.41;2101635;28;4051;-34
2021/05/09 01:06:45;;;;;;;;;;;;;;;19.28;36.46;100767.41;2102510;28;3871;-37
2021/05/09 01:07:46;;;;;;;;;;;;;;;19.28;36.38;100760.91;2100473;28;3970;-36
2021/05/09 01:08:47;;;;;;;;;;;;;;;19.25;36.62;100762.41;2102383;28;4092;-36
2021/05/09 01:09:47;;;;;;;;;;;;;;;19.27;36.46;100764.91;2102017;28;4336;-37
2021/05/09 01:10:48;;;;;;;;;;;;;;;19.25;36.36;100761.59;2101819;28;3879;-36
2021/05/09 01:11:49;;;;;;;;;;;;;;;19.26;36.47;100754.72;2101974;28;3986;-36
2021/05/09 01:12:51;;;;;;;;;;;;;;;19.24;36.59;100754.25;2102067;28;3982;-37
2021/05/09 01:13:52;;;;;;;;;;;;;;;19.23;36.53;100758.25;2101713;28;4033;-36
2021/05/09 01:14:52;;;;;;;;;;;;;;;19.07;36.07;100761.66;2102202;28;3844;-36
2021/05/09 01:15:53;;;;;;;;;;;;;;;18.95;36.19;100755.91;2101507;28;4017;-39
2021/05/09 01:16:54;;;;;;;;;;;;;;;18.91;36.53;100752.06;2102532;28;3842;-38
2021/05/09 01:18:02;;;;;;;;;;;;;;;19.01;36.73;100750.88;2099482;28;4019;-35
2021/05/09 01:19:03;;;;;;;;;;;;;;;19.11;36.95;100750.50;2101602;28;4908;-35
2021/05/09 01:20:04;;;;;;;;;;;;;;;19.18;37.05;100749.94;2096517;28;4063;-32
2021/05/09 01:21:04;;;;;;;;;;;;;;;19.23;37.30;100750.56;2099288;28;4081;-37
2021/05/09 01:22:05;;;;;;;;;;;;;;;19.28;37.27;100741.03;2101658;28;3884;-32
2021/05/09 01:23:06;;;;;;;;;;;;;;;19.31;37.43;100740.34;2102332;28;4064;-37
2021/05/09 01:24:07;;;;;;;;;;;;;;;19.32;37.78;100745.66;2102348;28;4071;-37
2021/05/09 01:25:07;;;;;;;;;;;;;;;19.34;37.59;100748.19;2102845;28;4044;-35
2021/05/09 01:26:08;;;;;;;;;;;;;;;19.37;37.77;100747.50;2101833;28;4071;-34
2021/05/09 01:27:09;;;;;;;;;;;;;;;19.38;37.81;100748.31;2100297;28;4079;-36
2021/05/09 01:28:10;;;;;;;;;;;;;;;19.39;38.05;100747.97;2100582;28;3919;-33
2021/05/09 01:29:10;;;;;;;;;;;;;;;19.41;37.96;100745.63;2100814;28;4048;-34
2021/05/09 01:30:11;;;;;;;;;;;;;;;19.42;38.26;100740.78;2100359;28;3894;-32
2021/05/09 01:31:12;;;;;;;;;;;;;;;19.44;38.16;100741.28;2099319;28;4109;-34
2021/05/09 01:32:13;;;;;;;;;;;;;;;19.45;38.16;100740.91;2101936;28;4016;-33
2021/05/09 01:33:14;;;;;;;;;;;;;;;19.45;38.27;100734.44;2101078;28;4049;-34
2021/05/09 01:34:15;;;;;;;;;;;;;;;19.47;38.29;100737.75;2102362;28;4044;-34
2021/05/09 01:35:16;;;;;;;;;;;;;;;19.47;38.48;100729.25;2102076;28;4112;-37
2021/05/09 01:36:17;;;;;;;;;;;;;;;19.48;38.35;100730.91;2101302;28;3873;-36
2021/05/09 01:37:17;;;;;;;;;;;;;;;19.49;38.37;100733.41;2100946;28;4219;-37
2021/05/09 01:38:18;;;;;;;;;;;;;;;19.50;38.43;100725.72;2102258;28;4046;-35
2021/05/09 01:39:19;;;;;;;;;;;;;;;19.51;38.59;100721.69;2101698;28;4027;-35
2021/05/09 01:40:19;;;;;;;;;;;;;;;19.52;38.59;100731.88;2101585;28;4300;-35
2021/05/09 01:41:20;;;;;;;;;;;;;;;19.53;38.58;100733.53;2101030;28;4082;-37
2021/05/09 01:42:21;;;;;;;;;;;;;;;19.53;38.66;100727.84;2102255;28;4059;-35
2021/05/09 01:43:22;;;;;;;;;;;;;;;19.53;38.87;100725.84;2101885;28;4038;-35
2021/05/09 01:44:23;;;;;;;;;;;;;;;19.54;38.83;100727.50;2102234;28;4091;-34
2021/05/09 01:45:25;;;;;;;;;;;;;;;19.55;38.93;100729.16;2101551;28;4042;-37
2021/05/09 01:46:25;;;;;;;;;;;;;;;19.56;38.87;100724.31;2101266;28;4015;-32
2021/05/09 01:47:26;;;;;;;;;;;;;;;19.57;38.95;100728.81;2101454;28;4061;-33
2021/05/09 01:48:27;;;;;;;;;;;;;;;19.56;38.92;100727.97;2100434;28;3891;-36
2021/05/09 01:49:28;;;;;;;;;;;;;;;19.57;39.08;100724.00;2102530;28;4022;-39
2021/05/09 01:50:29;;;;;;;;;;;;;;;19.58;39.08;100719.13;2101226;28;4022;-33
2021/05/09 01:51:30;;;;;;;;;;;;;;;19.59;39.19;100720.78;2101179;28;3878;-34
2021/05/09 01:52:30;;;;;;;;;;;;;;;19.61;39.19;100721.28;2102453;28;4230;-36
2021/05/09 01:53:31;;;;;;;;;;;;;;;19.61;39.16;100718.44;2101875;28;3854;-37
2021/05/09 01:54:32;;;;;;;;;;;;;;;19.62;39.19;100717.25;2101688;28;3860;-34
2021/05/09 01:55:33;;;;;;;;;;;;;;;19.63;39.27;100721.78;2101644;28;4049;-38
2021/05/09 01:56:33;;;;;;;;;;;;;;;19.64;39.29;100722.59;2099887;28;4037;-37
2021/05/09 01:57:34;;;;;;;;;;;;;;;19.64;39.39;100720.59;2101890;28;4039;-36
2021/05/09 01:58:35;;;;;;;;;;;;;;;19.65;39.30;100712.91;2101992;28;4113;-36
2021/05/09 01:59:36;;;;;;;;;;;;;;;19.65;39.40;100705.22;2100927;28;4023;-32
2021/05/09 02:00:36;;;;;;;;;;;;;;;19.67;39.35;100713.41;2099807;28;3979;-33
2021/05/09 02:01:39;;;;;;;;;;;;;;;19.67;39.49;100722.75;2101367;28;4153;-36
2021/05/09 02:02:40;;;;;;;;;;;;;;;19.68;39.52;100712.22;2101308;28;3984;-37
2021/05/09 02:03:41;;;;;;;;;;;;;;;19.69;39.53;100711.06;2102276;28;3842;-38
2021/05/09 02:04:42;;;;;;;;;;;;;;;19.69;39.55;100717.56;2102088;28;4232;-38
2021/05/09 02:05:42;;;;;;;;;;;;;;;19.71;39.64;100717.22;2102116;28;4005;-34
2021/05/09 02:06:43;;;;;;;;;;;;;;;19.71;39.67;100717.22;2101565;28;4105;-33
2021/05/09 02:07:44;;;;;;;;;;;;;;;19.71;39.67;100709.56;2102117;28;4029;-35
2021/05/09 02:08:44;;;;;;;;;;;;;;;19.75;39.79;100709.69;2101784;28;3848;-37
2021/05/09 02:09:45;;;;;;;;;;;;;;;19.74;39.72;100716.53;2102269;28;3866;-36
2021/05/09 02:10:46;;;;;;;;;;;;;;;19.73;39.82;100712.03;2101914;28;3849;-36
2021/05/09 02:11:47;;;;;;;;;;;;;;;19.72;39.89;100711.19;2101244;28;4068;-35
2021/05/09 02:12:48;;;;;;;;;;;;;;;19.73;39.79;100714.88;2101022;28;4131;-38
2021/05/09 02:13:49;;;;;;;;;;;;;;;19.74;39.82;100713.69;2101905;28;4069;-34
2021/05/09 02:14:50;;;;;;;;;;;;;;;19.75;39.97;100712.50;2101733;28;4009;-35
2021/05/09 02:15:51;;;;;;;;;;;;;;;19.76;39.84;100714.16;2101153;28;3710;-36
2021/05/09 02:16:51;;;;;;;;;;;;;;;19.76;39.99;100709.31;2100912;28;4020;-36
2021/05/09 02:17:52;;;;;;;;;;;;;;;19.76;39.86;100714.16;2101371;28;4467;-33
2021/05/09 02:18:53;;;;;;;;;;;;;;;19.77;40.03;100713.84;2101414;28;3989;-36
2021/05/09 02:19:54;;;;;;;;;;;;;;;19.77;39.88;100711.00;2102021;28;4020;-38
2021/05/09 02:20:54;;;;;;;;;;;;;;;19.77;40.01;100716.66;2101343;28;3952;-34
2021/05/09 02:21:55;;;;;;;;;;;;;;;19.78;40.14;100714.66;2101261;28;3956;-34
2021/05/09 02:22:56;;;;;;;;;;;;;;;19.79;40.19;100716.31;2101426;28;4024;-38
2021/05/09 02:23:57;;;;;;;;;;;;;;;19.79;40.05;100713.47;2101138;28;4012;-36
2021/05/09 02:24:57;;;;;;;;;;;;;;;19.79;40.01;100717.16;2099166;28;3977;-35
2021/05/09 02:25:58;;;;;;;;;;;;;;;19.79;40.26;100721.97;2101060;28;4074;-34
2021/05/09 02:26:59;;;;;;;;;;;;;;;19.79;40.13;100717.16;2101656;28;4048;-32
2021/05/09 02:27:59;;;;;;;;;;;;;;;19.79;40.15;100719.13;2101142;28;3944;-38
2021/05/09 02:29:00;;;;;;;;;;;;;;;19.79;40.11;100714.31;2101195;28;3814;-32
2021/05/09 02:30:01;;;;;;;;;;;;;;;19.80;40.21;100707.44;2101736;28;4253;-35
2021/05/09 02:31:02;;;;;;;;;;;;;;;19.80;40.25;100704.63;2100492;28;3960;-35
2021/05/09 02:32:02;;;;;;;;;;;;;;;19.81;40.38;100708.28;2101760;28;3948;-35
2021/05/09 02:33:03;;;;;;;;;;;;;;;19.81;40.30;100711.13;2101157;28;4247;-30
2021/05/09 02:34:04;;;;;;;;;;;;;;;19.82;40.30;100711.94;2100977;28;3926;-32
2021/05/09 02:35:05;;;;;;;;;;;;;;;19.82;40.27;100706.25;2100895;28;3897;-35
2021/05/09 02:36:05;;;;;;;;;;;;;;;19.82;40.34;100706.25;2101233;28;4214;-35
2021/05/09 02:37:06;;;;;;;;;;;;;;;19.82;40.37;100707.09;2101441;28;4057;-36
2021/05/09 02:38:07;;;;;;;;;;;;;;;19.83;40.38;100702.25;2101613;28;4019;-36
2021/05/09 02:39:08;;;;;;;;;;;;;;;19.83;40.49;100707.94;2101164;28;4034;-34
2021/05/09 02:40:09;;;;;;;;;;;;;;;19.83;40.36;100703.09;2099103;28;4048;-32
2021/05/09 02:41:09;;;;;;;;;;;;;;;19.84;40.37;100712.44;2100820;28;4145;-34
2021/05/09 02:42:10;;;;;;;;;;;;;;;19.83;40.33;100708.78;2100953;28;4271;-36
2021/05/09 02:43:11;;;;;;;;;;;;;;;19.83;40.44;100702.25;2101245;28;4041;-36
2021/05/09 02:44:12;;;;;;;;;;;;;;;19.84;40.49;100699.06;2101473;28;4942;-37
2021/05/09 02:45:12;;;;;;;;;;;;;;;19.85;40.48;100705.56;2101499;28;3883;-32
2021/05/09 02:46:13;;;;;;;;;;;;;;;19.84;40.50;100704.75;2099956;28;3843;-36
2021/05/09 02:47:27;;;;;;;;;;;;;;;19.86;40.44;100707.25;2101610;28;4013;-34
2021/05/09 02:48:30;;;;;;;;;;;;;;;19.85;40.65;100709.25;2101866;28;4019;-35
2021/05/09 02:49:30;;;;;;;;;;;;;;;19.85;40.56;100706.41;2101115;28;3959;-32
2021/05/09 02:50:31;;;;;;;;;;;;;;;19.85;40.50;100708.41;2101445;28;4030;-35
2021/05/09 02:51:32;;;;;;;;;;;;;;;19.85;40.53;100703.59;2101130;28;4003;-37
2021/05/09 02:52:33;;;;;;;;;;;;;;;19.86;40.47;100712.94;2101536;28;3887;-39
2021/05/09 02:53:33;;;;;;;;;;;;;;;19.85;40.63;100703.59;2100515;28;4358;-33
2021/05/09 02:54:34;;;;;;;;;;;;;;;19.86;40.71;100707.25;2101092;28;4037;-37
2021/05/09 02:55:35;;;;;;;;;;;;;;;19.86;40.59;100702.38;2101624;28;4041;-36
2021/05/09 02:56:35;;;;;;;;;;;;;;;19.86;40.73;100708.06;2100459;28;4073;-39
2021/05/09 02:57:36;;;;;;;;;;;;;;;19.87;40.63;100708.91;2100793;28;4021;-36
2021/05/09 02:58:37;;;;;;;;;;;;;;;19.87;40.75;100711.72;2099826;28;4012;-36
2021/05/09 02:59:38;;;;;;;;;;;;;;;19.87;40.64;100703.22;2101929;28;3984;-35
2021/05/09 03:00:38;;;;;;;;;;;;;;;19.88;40.64;100708.56;2100153;28;3828;-34
2021/05/09 03:01:42;;;;;;;;;;;;;;;19.88;40.75;100711.41;2100175;28;4148;-34
2021/05/09 03:02:43;;;;;;;;;;;;;;;19.88;40.69;100708.56;2100751;28;6743;-34
2021/05/09 03:03:43;;;;;;;;;;;;;;;19.89;40.66;100706.53;2098995;28;4059;-36
2021/05/09 03:04:44;;;;;;;;;;;;;;;19.88;40.65;100708.56;2101713;28;3871;-37
2021/05/09 03:05:45;;;;;;;;;;;;;;;19.87;40.80;100709.72;2101337;28;4064;-32
2021/05/09 03:06:46;;;;;;;;;;;;;;;19.88;40.71;100707.75;2099935;28;4016;-34
2021/05/09 03:07:47;;;;;;;;;;;;;;;19.88;40.97;100710.56;2101480;28;4217;-32
2021/05/09 03:08:47;;;;;;;;;;;;;;;19.88;40.78;100702.88;2100728;28;3943;-38
2021/05/09 03:09:48;;;;;;;;;;;;;;;19.88;40.86;100705.72;2100494;28;3842;-34
2021/05/09 03:10:49;;;;;;;;;;;;;;;19.89;40.82;100700.88;2101467;28;3853;-39
2021/05/09 03:11:49;;;;;;;;;;;;;;;19.89;40.89;100703.72;2099766;28;4038;-37
2021/05/09 03:12:50;;;;;;;;;;;;;;;19.90;40.90;100711.03;2101484;28;4117;-34
2021/05/09 03:13:51;;;;;;;;;;;;;;;19.89;40.91;100707.38;2101357;28;3849;-37
2021/05/09 03:14:52;;;;;;;;;;;;;;;19.89;40.93;100712.22;2101388;28;3920;-33
2021/05/09 03:15:52;;;;;;;;;;;;;;;19.90;40.87;100709.03;2101573;28;3883;-39
2021/05/09 03:16:53;;;;;;;;;;;;;;;19.91;40.94;100704.19;2099834;28;4205;-37
2021/05/09 03:17:54;;;;;;;;;;;;;;;19.91;40.98;100707.03;2100766;28;3974;-38
2021/05/09 03:18:55;;;;;;;;;;;;;;;19.92;40.97;100711.53;2101571;28;4184;-34
2021/05/09 03:19:55;;;;;;;;;;;;;;;19.91;41.06;100709.88;2101268;28;3880;-35
2021/05/09 03:20:56;;;;;;;;;;;;;;;19.91;40.92;100707.03;2101477;28;3996;-34
2021/05/09 03:21:57;;;;;;;;;;;;;;;19.92;41.17;100706.66;2099599;28;3835;-33
2021/05/09 03:22:58;;;;;;;;;;;;;;;19.91;40.96;100705.03;2100997;28;4004;-37
2021/05/09 03:23:58;;;;;;;;;;;;;;;19.91;40.84;100707.84;2100791;28;4021;-37
2021/05/09 03:24:59;;;;;;;;;;;;;;;19.92;41.05;100709.50;2101255;28;3927;-34
2021/05/09 03:26:00;;;;;;;;;;;;;;;19.93;40.99;100701.81;2100901;28;4052;-35
2021/05/09 03:27:01;;;;;;;;;;;;;;;19.92;41.06;100703.84;2100426;28;4046;-37
2021/05/09 03:28:01;;;;;;;;;;;;;;;19.91;41.06;100699.34;2101381;28;3816;-36
2021/05/09 03:29:02;;;;;;;;;;;;;;;19.91;41.24;100698.50;2101576;28;3926;-36
2021/05/09 03:30:03;;;;;;;;;;;;;;;19.90;41.11;100700.50;2101050;28;4094;-35
2021/05/09 03:31:03;;;;;;;;;;;;;;;19.91;41.12;100705.03;2101440;28;4217;-34
2021/05/09 03:32:04;;;;;;;;;;;;;;;19.90;41.05;100703.34;2099155;28;3876;-37
2021/05/09 03:33:05;;;;;;;;;;;;;;;19.91;41.21;100701.34;2100022;28;4061;-36
2021/05/09 03:34:06;;;;;;;;;;;;;;;19.91;41.20;100699.34;2099270;28;4951;-35
2021/05/09 03:35:08;;;;;;;;;;;;;;;19.91;41.17;100696.50;2101628;28;3876;-37
2021/05/09 03:36:09;;;;;;;;;;;;;;;19.92;41.29;100701.00;2099427;28;4274;-32
2021/05/09 03:37:09;;;;;;;;;;;;;;;19.93;41.29;100705.50;2100981;28;4110;-35
2021/05/09 03:38:10;;;;;;;;;;;;;;;19.94;41.19;100700.66;2101643;28;4065;-36
2021/05/09 03:39:11;;;;;;;;;;;;;;;19.93;41.20;100702.66;2101372;28;3891;-39
2021/05/09 03:40:12;;;;;;;;;;;;;;;19.93;41.15;100704.66;2099920;28;4074;-31
2021/05/09 03:41:12;;;;;;;;;;;;;;;19.94;41.25;100701.47;2100668;28;4062;-35
2021/05/09 03:42:13;;;;;;;;;;;;;;;19.94;41.35;100703.50;2100502;28;4035;-36
2021/05/09 03:43:14;;;;;;;;;;;;;;;19.93;41.39;100704.66;2101487;28;4047;-39
2021/05/09 03:44:15;;;;;;;;;;;;;;;19.93;41.32;100705.50;2100788;28;4039;-38
2021/05/09 03:45:16;;;;;;;;;;;;;;;19.93;41.26;100694.16;2100290;28;3866;-36
2021/05/09 03:46:16;;;;;;;;;;;;;;;19.95;41.37;100699.47;2101424;28;3882;-37
2021/05/09 03:47:17;;;;;;;;;;;;;;;19.94;41.29;100706.34;2100316;28;4058;-35
2021/05/09 03:48:18;;;;;;;;;;;;;;;19.94;41.40;100703.50;2099663;28;4063;-34
2021/05/09 03:49:19;;;;;;;;;;;;;;;19.94;41.33;100700.66;2101593;28;4182;-37
2021/05/09 03:50:20;;;;;;;;;;;;;;;19.94;41.38;100692.97;2101033;28;5069;-35
2021/05/09 03:51:20;;;;;;;;;;;;;;;19.95;41.50;100702.31;2101207;28;4051;-35
2021/05/09 03:52:21;;;;;;;;;;;;;;;19.95;41.42;100694.59;2100446;28;4035;-34
2021/05/09 03:53:24;;;;;;;;;;;;;;;19.95;41.40;100697.44;2100249;28;3965;-36
2021/05/09 03:54:24;;;;;;;;;;;;;;;19.95;41.36;100694.59;2100918;28;4120;-35
2021/05/09 03:55:25;;;;;;;;;;;;;;;19.95;41.50;100694.59;2099351;28;4036;-34
2021/05/09 03:56:26;;;;;;;;;;;;;;;19.96;41.52;100695.47;2101346;28;4068;-35
2021/05/09 03:57:27;;;;;;;;;;;;;;;19.96;41.46;100687.78;2100200;28;4037;-36
2021/05/09 03:58:27;;;;;;;;;;;;;;;19.96;41.40;100681.28;2100202;28;4039;-35
2021/05/09 03:59:29;;;;;;;;;;;;;;;19.96;41.47;100684.94;2099852;28;4027;-33
2021/05/09 04:00:30;;;;;;;;;;;;;;;19.97;41.54;100688.59;2100468;28;4027;-32
2021/05/09 04:01:31;;;;;;;;;;;;;;;19.97;41.60;100685.75;2100258;28;4010;-38
2021/05/09 04:02:32;;;;;;;;;;;;;;;19.96;41.52;100684.94;2099360;28;4034;-36
2021/05/09 04:03:32;;;;;;;;;;;;;;;19.97;41.47;100682.91;2098767;28;4043;-34
2021/05/09 04:04:33;;;;;;;;;;;;;;;19.96;41.53;100670.75;2101814;28;4249;-33
2021/05/09 04:05:34;;;;;;;;;;;;;;;19.96;41.55;100676.41;2102246;28;4020;-34
2021/05/09 04:06:35;;;;;;;;;;;;;;;19.96;41.60;100672.75;2101243;28;4108;-35
2021/05/09 04:07:35;;;;;;;;;;;;;;;19.97;41.50;100668.72;2102375;28;3907;-35
2021/05/09 04:08:36;;;;;;;;;;;;;;;19.96;41.57;100673.56;2102181;28;4034;-32
2021/05/09 04:09:37;;;;;;;;;;;;;;;19.97;41.58;100675.22;2102808;28;3986;-36
2021/05/09 04:10:37;;;;;;;;;;;;;;;19.97;41.57;100678.06;2102702;28;4019;-39
2021/05/09 04:11:38;;;;;;;;;;;;;;;19.97;41.69;100671.56;2100828;28;4211;-35
2021/05/09 04:12:39;;;;;;;;;;;;;;;19.96;41.58;100673.56;2102940;28;4211;-36
2021/05/09 04:13:40;;;;;;;;;;;;;;;19.97;41.63;100669.53;2101942;28;4032;-35
2021/05/09 04:14:40;;;;;;;;;;;;;;;19.97;41.70;100678.06;2102176;28;4412;-37
2021/05/09 04:15:41;;;;;;;;;;;;;;;19.97;41.62;100678.06;2100371;28;4053;-38
2021/05/09 04:16:42;;;;;;;;;;;;;;;19.97;41.62;100677.25;2101755;28;4010;-34
2021/05/09 04:17:43;;;;;;;;;;;;;;;19.97;41.76;100677.25;2101601;28;4049;-32
2021/05/09 04:18:44;;;;;;;;;;;;;;;19.97;41.76;100683.75;2102763;28;4095;-37
2021/05/09 04:19:44;;;;;;;;;;;;;;;19.98;41.69;100670.38;2100535;28;4094;-31
2021/05/09 04:20:45;;;;;;;;;;;;;;;19.97;41.71;100672.38;2103189;28;4431;-37
2021/05/09 04:21:46;;;;;;;;;;;;;;;19.97;41.72;100668.72;2101598;28;4014;-36
2021/05/09 04:22:47;;;;;;;;;;;;;;;19.97;41.72;100669.53;2102231;28;3967;-39
2021/05/09 04:23:47;;;;;;;;;;;;;;;19.97;41.76;100666.72;2101943;28;4048;-35
2021/05/09 04:24:48;;;;;;;;;;;;;;;19.98;41.83;100671.19;2101406;28;4041;-39
2021/05/09 04:25:49;;;;;;;;;;;;;;;19.97;41.83;100675.22;2102576;28;4193;-34
2021/05/09 04:26:50;;;;;;;;;;;;;;;19.97;41.88;100672.38;2102875;28;4316;-33
2021/05/09 04:27:50;;;;;;;;;;;;;;;19.97;41.90;100669.53;2099613;28;4225;-36
2021/05/09 04:28:51;;;;;;;;;;;;;;;19.97;41.87;100672.38;2099455;28;4038;-36
2021/05/09 04:29:52;;;;;;;;;;;;;;;19.97;41.99;100672.38;2102151;28;3855;-34
2021/05/09 04:30:52;;;;;;;;;;;;;;;19.97;41.92;100666.72;2102861;28;4025;-37
2021/05/09 04:31:53;;;;;;;;;;;;;;;19.97;41.81;100675.22;2102725;28;3985;-38
2021/05/09 04:32:54;;;;;;;;;;;;;;;19.98;41.95;100674.03;2101217;28;4029;-36
2021/05/09 04:33:55;;;;;;;;;;;;;;;19.99;41.88;100666.38;2101384;28;3957;-33
2021/05/09 04:34:55;;;;;;;;;;;;;;;19.98;42.02;100667.53;2101845;28;4162;-39
2021/05/09 04:35:56;;;;;;;;;;;;;;;19.98;41.99;100671.19;2102203;28;4112;-34
2021/05/09 04:36:57;;;;;;;;;;;;;;;19.98;41.88;100665.50;2101815;28;4130;-37
2021/05/09 04:37:58;;;;;;;;;;;;;;;19.98;42.02;100664.69;2099767;28;3990;-35
2021/05/09 04:38:58;;;;;;;;;;;;;;;20.00;42.08;100670.84;2102902;28;4180;-34
2021/05/09 04:39:59;;;;;;;;;;;;;;;19.98;42.02;100667.53;2102295;28;4070;-38
2021/05/09 04:41:00;;;;;;;;;;;;;;;19.99;42.02;100669.22;2102363;28;3796;-33
2021/05/09 04:42:01;;;;;;;;;;;;;;;19.99;42.13;100672.03;2101360;28;3814;-37
2021/05/09 04:43:01;;;;;;;;;;;;;;;19.99;42.02;100674.88;2102808;28;3984;-37
2021/05/09 04:44:02;;;;;;;;;;;;;;;19.97;42.14;100672.38;2101520;28;4954;-37
2021/05/09 04:45:03;;;;;;;;;;;;;;;19.98;42.11;100667.53;2102222;28;5023;-33
2021/05/09 04:46:03;;;;;;;;;;;;;;;20.00;42.19;100679.38;2102832;28;4071;-35
2021/05/09 04:47:05;;;;;;;;;;;;;;;19.98;42.14;100664.69;2100686;28;4046;-37
2021/05/09 04:48:06;;;;;;;;;;;;;;;19.98;42.17;100676.03;2101578;28;4044;-34
2021/05/09 04:49:06;;;;;;;;;;;;;;;19.98;42.16;100670.38;2102196;28;4092;-37
2021/05/09 04:50:07;;;;;;;;;;;;;;;19.99;42.28;100666.38;2102658;28;4025;-34
2021/05/09 04:51:08;;;;;;;;;;;;;;;19.99;42.23;100670.03;2102667;28;4077;-32
2021/05/09 04:52:08;;;;;;;;;;;;;;;19.98;42.30;100668.34;2101958;28;4193;-35
2021/05/09 04:53:09;;;;;;;;;;;;;;;20.00;42.17;100670.84;2101752;28;4067;-35
2021/05/09 04:54:10;;;;;;;;;;;;;;;19.98;42.25;100671.19;2103035;28;4019;-35
2021/05/09 04:55:11;;;;;;;;;;;;;;;19.98;42.33;100670.38;2102606;28;4228;-38
2021/05/09 04:56:11;;;;;;;;;;;;;;;19.99;42.30;100672.88;2101510;28;4030;-36
2021/05/09 04:57:12;;;;;;;;;;;;;;;19.99;42.21;100670.03;2102046;28;4055;-31
2021/05/09 04:58:13;;;;;;;;;;;;;;;19.99;42.31;100669.22;2102399;28;4203;-34
2021/05/09 04:59:13;;;;;;;;;;;;;;;19.99;42.33;100669.22;2102476;28;4018;-33
2021/05/09 05:00:14;;;;;;;;;;;;;;;19.99;42.27;100670.03;2101282;28;3854;-37
2021/05/09 05:01:15;;;;;;;;;;;;;;;20.00;42.33;100676.53;2101668;28;3898;-36
2021/05/09 05:02:16;;;;;;;;;;;;;;;19.98;42.06;100681.72;2093551;28;4065;-34
2021/05/09 05:03:20;;;;;;;;;;;;;;;19.99;42.31;100681.38;2092184;28;4063;-39
2021/05/09 05:04:21;;;;;;;;;;;;;;;19.99;42.32;100680.56;2102272;28;4331;-36
2021/05/09 05:05:22;;;;;;;;;;;;;;;19.98;42.25;100676.88;2102032;28;4067;-34
2021/05/09 05:06:23;;;;;;;;;;;;;;;19.99;42.26;100681.38;2102001;28;4058;-39
2021/05/09 05:07:24;;;;;;;;;;;;;;;19.99;42.31;100678.56;2101725;28;4158;-36
2021/05/09 05:08:24;;;;;;;;;;;;;;;19.99;42.34;100681.38;2101587;28;4013;-34
2021/05/09 05:09:26;;;;;;;;;;;;;;;19.99;42.31;100680.56;2101823;28;4004;-32
2021/05/09 05:10:27;;;;;;;;;;;;;;;19.99;42.28;100681.38;2103070;28;4052;-32
2021/05/09 05:11:27;;;;;;;;;;;;;;;19.99;42.31;100678.56;2102533;28;4065;-34
2021/05/09 05:12:28;;;;;;;;;;;;;;;19.99;42.42;100689.91;2102752;28;4070;-34
2021/05/09 05:13:32;;;;;;;;;;;;;;;20.00;42.33;100688.72;2102251;28;3875;-36
2021/05/09 05:14:33;;;;;;;;;;;;;;;19.99;42.36;100689.91;2101883;28;3863;-36
2021/05/09 05:15:34;;;;;;;;;;;;;;;19.99;42.40;100687.06;2102125;28;4031;-33
2021/05/09 05:16:35;;;;;;;;;;;;;;;19.99;42.34;100687.06;2101150;28;4290;-38
2021/05/09 05:17:35;;;;;;;;;;;;;;;20.00;42.36;100687.91;2102496;28;4039;-35